Glen Avon, Illinois
Current Conditions -  °F | °C
As of 2:10 AM on Sunday 26 Oct 2014 (Local Time) from KTIP Reporting Station
Clear Clear  
Wind Chill: 46°   Ceiling: Unl
Heat Index: 49°   Visibility: 10mi
Dew Point: 38°   Wind: 7mph
Humidity: 66%   Direction: 310°NW
Pressure: 30.02"   Gusts: NA
Location:  40.3398°N, 88.5173°W
Report Text: KTIP 260710Z AUTO 31006KT 10SM CLR 09/03 A3002 RMK AO2 T00930032
Loading
Personal Weather Stations






























Interactive Weather Map
Tropical Storm Tracking
New forecast layout! Learn more

10-Day Weather Forecast

Advertisements
Track Severe Weather on mobile